createdAt,value
2018-07-10T00:02:43.523Z,4.00
2018-07-10T00:05:28.186Z,4.00
2018-07-10T00:09:22.475Z,3.80
2018-07-10T00:11:51.813Z,4.00
2018-07-10T00:14:21.220Z,4.17
2018-07-10T00:16:50.638Z,3.83
2018-07-10T00:19:20.886Z,4.23
2018-07-10T00:21:50.297Z,4.47
2018-07-10T00:24:19.717Z,4.13
2018-07-10T00:26:49.126Z,4.27
2018-07-10T00:29:18.633Z,3.77
2018-07-10T00:31:48.371Z,4.17
2018-07-10T00:34:17.846Z,4.50
2018-07-10T00:36:47.237Z,4.00
2018-07-10T00:39:16.703Z,4.60
2018-07-10T00:41:46.151Z,4.20
2018-07-10T00:44:15.589Z,4.07
2018-07-10T00:46:45.008Z,4.00
2018-07-10T00:49:14.386Z,4.40
2018-07-10T00:51:43.781Z,4.50
2018-07-10T00:54:13.254Z,3.60
2018-07-10T00:56:42.713Z,4.33
2018-07-10T00:59:12.500Z,3.63
2018-07-10T01:01:41.969Z,4.00
2018-07-10T01:04:11.371Z,4.17
2018-07-10T01:06:40.815Z,4.00
2018-07-10T01:09:16.063Z,3.70
2018-07-10T01:11:45.598Z,3.77
2018-07-10T01:14:15.107Z,3.60
2018-07-10T01:16:44.546Z,3.47
2018-07-10T01:19:17.103Z,3.60
2018-07-10T01:21:48.213Z,3.30
2018-07-10T01:24:18.962Z,3.77
2018-07-10T01:26:50.333Z,3.60
2018-07-10T01:29:25.684Z,3.30
2018-07-10T01:31:55.939Z,3.60
2018-07-10T01:34:25.507Z,3.03
2018-07-10T01:36:55.334Z,3.43
2018-07-10T01:39:24.830Z,3.47
2018-07-10T01:41:54.524Z,3.20
2018-07-10T01:44:23.950Z,3.30
2018-07-10T01:46:53.345Z,3.40
2018-07-10T01:49:22.815Z,3.27
2018-07-10T01:51:52.256Z,3.30
2018-07-10T01:54:21.619Z,3.80
2018-07-10T01:56:51.023Z,3.50
2018-07-10T01:59:22.460Z,3.40
2018-07-10T02:01:52.099Z,3.33
2018-07-10T02:04:21.533Z,3.47
2018-07-10T02:06:51.074Z,3.67
2018-07-10T02:09:20.557Z,4.13
2018-07-10T02:11:50.102Z,3.70
2018-07-10T02:14:19.506Z,3.80
2018-07-10T02:16:48.957Z,4.20
2018-07-10T02:19:18.513Z,3.70
2018-07-10T02:21:47.972Z,3.90
2018-07-10T02:24:22.266Z,3.90
2018-07-10T02:26:52.274Z,3.90
2018-07-10T02:29:21.779Z,4.20
2018-07-10T02:31:51.296Z,3.87
2018-07-10T02:34:20.952Z,3.83
2018-07-10T02:36:50.413Z,3.90
2018-07-10T02:39:20.417Z,4.13
2018-07-10T02:41:50.030Z,4.10
2018-07-10T02:44:19.591Z,4.00
2018-07-10T02:46:49.190Z,4.00
2018-07-10T02:49:20.987Z,3.63
2018-07-10T02:51:57.139Z,4.57
2018-07-10T02:54:32.406Z,3.90
2018-07-10T02:57:06.210Z,4.23
2018-07-10T02:59:39.134Z,3.73
2018-07-10T03:02:24.611Z,3.60
2018-07-10T03:05:02.004Z,3.73
2018-07-10T03:07:32.669Z,3.70
2018-07-10T03:10:02.762Z,3.80
2018-07-10T03:12:34.645Z,3.57
2018-07-10T03:15:08.570Z,3.60
2018-07-10T03:17:37.963Z,4.03
2018-07-10T03:20:08.257Z,3.60
2018-07-10T03:22:38.099Z,3.90
2018-07-10T03:25:08.623Z,3.90
2018-07-10T03:27:38.345Z,3.57
2018-07-10T03:30:07.791Z,3.50
2018-07-10T03:32:37.252Z,3.40
2018-07-10T03:35:06.948Z,3.00
2018-07-10T03:37:36.374Z,3.17
2018-07-10T03:40:05.973Z,3.37
2018-07-10T03:42:35.433Z,3.40
2018-07-10T03:45:05.092Z,3.63
2018-07-10T03:47:34.563Z,4.17
2018-07-10T03:50:04.157Z,4.00
2018-07-10T03:52:36.353Z,4.00
2018-07-10T03:55:12.925Z,4.93
2018-07-10T03:57:42.411Z,4.60
2018-07-10T04:00:14.039Z,4.60
2018-07-10T04:02:46.800Z,4.63
2018-07-10T04:05:16.981Z,4.40
2018-07-10T04:07:48.995Z,4.27
2018-07-10T04:10:19.989Z,4.70
2018-07-10T04:12:51.041Z,4.23
2018-07-10T04:15:20.786Z,4.40
2018-07-10T04:18:09.488Z,4.43
2018-07-10T04:21:11.336Z,4.60
2018-07-10T04:23:40.845Z,3.50
2018-07-10T04:26:21.923Z,4.00
2018-07-10T04:29:15.365Z,3.60
2018-07-10T04:31:56.383Z,4.00
2018-07-10T04:34:26.077Z,3.73
2018-07-10T04:37:15.047Z,3.77
2018-07-10T04:39:46.058Z,3.70
2018-07-10T04:42:40.932Z,3.50
2018-07-10T04:45:11.924Z,3.47
2018-07-10T04:47:51.720Z,3.67
2018-07-10T04:50:41.925Z,3.50
2018-07-10T04:53:21.587Z,3.60
2018-07-10T04:55:51.087Z,3.60
2018-07-10T04:58:22.762Z,4.17
2018-07-10T05:01:03.726Z,3.50
2018-07-10T05:03:33.526Z,3.67
2018-07-10T05:06:06.336Z,3.30
2018-07-10T05:08:35.796Z,3.97
2018-07-10T05:11:06.315Z,4.20
2018-07-10T05:13:37.008Z,4.10
2018-07-10T05:16:07.381Z,4.27
2018-07-10T05:18:36.914Z,3.90
2018-07-10T05:21:16.844Z,4.07
2018-07-10T05:23:46.906Z,4.40
2018-07-10T05:26:18.060Z,3.60
2018-07-10T05:28:52.175Z,3.70
2018-07-10T05:31:21.788Z,4.03
2018-07-10T05:33:52.473Z,3.70
2018-07-10T05:36:24.569Z,4.23
2018-07-10T05:39:05.895Z,3.47
2018-07-10T05:41:43.273Z,3.63
2018-07-10T05:44:19.717Z,3.80
2018-07-10T05:46:49.357Z,3.90
2018-07-10T05:49:19.152Z,3.60
2018-07-10T05:51:51.025Z,3.40
2018-07-10T05:54:21.636Z,4.20
2018-07-10T05:56:51.210Z,3.70
2018-07-10T05:59:20.636Z,3.43
2018-07-10T06:01:50.166Z,3.47
2018-07-10T06:04:19.747Z,4.00
2018-07-10T06:06:49.212Z,3.33
2018-07-10T06:09:19.322Z,3.60
2018-07-10T06:11:48.807Z,3.73
2018-07-10T06:14:18.328Z,4.00
2018-07-10T06:16:47.854Z,3.37
2018-07-10T06:19:17.881Z,4.50
2018-07-10T06:21:50.439Z,4.17
2018-07-10T06:24:28.952Z,4.03
2018-07-10T06:27:00.382Z,3.43
2018-07-10T06:29:41.506Z,3.23
2018-07-10T06:32:19.158Z,3.47
2018-07-10T06:34:49.685Z,3.43
2018-07-10T06:37:31.457Z,2.93
2018-07-10T06:40:04.405Z,3.40
2018-07-10T06:43:59.115Z,3.37
2018-07-10T06:46:42.295Z,3.80
2018-07-10T06:49:30.172Z,3.50
2018-07-10T06:52:15.930Z,3.90
2018-07-10T06:55:09.731Z,4.00
2018-07-10T06:57:49.143Z,4.47
2018-07-10T07:00:18.694Z,4.20
2018-07-10T07:02:48.374Z,4.20
2018-07-10T07:05:17.780Z,4.07
2018-07-10T07:07:47.443Z,3.70
2018-07-10T07:10:17.465Z,4.20
2018-07-10T07:12:47.314Z,4.17
2018-07-10T07:15:20.775Z,3.57
2018-07-10T07:17:52.727Z,4.37
2018-07-10T07:20:24.006Z,4.43
2018-07-10T07:22:53.603Z,4.03
2018-07-10T07:25:23.006Z,3.63
2018-07-10T07:27:52.410Z,3.60
2018-07-10T07:30:21.930Z,3.57
2018-07-10T07:32:51.432Z,3.07
2018-07-10T07:35:20.792Z,3.47
2018-07-10T07:37:50.383Z,3.20
2018-07-10T07:40:19.898Z,3.53
2018-07-10T07:42:49.513Z,3.17
2018-07-10T07:45:19.093Z,3.13
2018-07-10T07:47:48.528Z,3.47
2018-07-10T07:50:18.144Z,3.00
2018-07-10T07:52:47.587Z,3.30
2018-07-10T07:55:16.990Z,3.37
2018-07-10T07:57:46.687Z,3.40
2018-07-10T08:00:16.139Z,2.60
2018-07-10T08:02:45.534Z,2.97
2018-07-10T08:05:14.978Z,2.87
2018-07-10T08:07:44.340Z,3.13
2018-07-10T08:10:14.149Z,2.97
2018-07-10T08:12:43.518Z,2.90
2018-07-10T08:15:13.032Z,2.80
2018-07-10T08:17:42.438Z,3.17
2018-07-10T08:20:11.876Z,2.83
2018-07-10T08:22:41.262Z,2.90
2018-07-10T08:25:10.880Z,3.63
2018-07-10T08:27:40.285Z,3.27
2018-07-10T08:30:09.717Z,2.93
2018-07-10T08:32:39.408Z,3.67
2018-07-10T08:35:08.880Z,12.07
2018-07-10T08:37:38.294Z,5.40
2018-07-10T08:40:08.163Z,4.17
2018-07-10T08:42:37.697Z,3.57
2018-07-10T08:45:07.162Z,3.70
2018-07-10T08:47:36.820Z,3.97
2018-07-10T08:50:06.329Z,3.93
2018-07-10T08:52:37.017Z,4.30
2018-07-10T08:55:07.339Z,4.17
2018-07-10T08:57:37.333Z,3.60
2018-07-10T09:00:06.861Z,3.67
2018-07-10T09:02:36.320Z,4.37
2018-07-10T09:05:05.850Z,4.00
2018-07-10T09:07:35.290Z,3.80
2018-07-10T09:10:04.786Z,4.13
2018-07-10T09:12:34.245Z,3.90
2018-07-10T09:15:03.741Z,3.30
2018-07-10T09:17:33.234Z,4.03
2018-07-10T09:20:04.349Z,5.57
2018-07-10T09:22:33.905Z,3.80
2018-07-10T09:25:05.634Z,3.27
2018-07-10T09:27:35.081Z,3.03
2018-07-10T09:30:04.546Z,3.07
2018-07-10T09:32:38.965Z,3.00
2018-07-10T09:35:08.398Z,10.70
2018-07-10T09:37:43.107Z,8.07
2018-07-10T09:40:15.165Z,4.80
2018-07-10T09:42:50.884Z,12.57
2018-07-10T09:45:20.288Z,3.70
2018-07-10T09:47:49.756Z,4.00
2018-07-10T09:50:19.465Z,3.03
2018-07-10T09:52:49.346Z,3.13
2018-07-10T09:55:18.949Z,2.77
2018-07-10T09:57:48.417Z,3.00
2018-07-10T10:00:23.178Z,3.23
2018-07-10T10:02:52.562Z,3.00
2018-07-10T10:05:22.242Z,3.20
2018-07-10T10:07:51.923Z,2.70
2018-07-10T10:10:21.427Z,2.50
2018-07-10T10:12:51.026Z,3.00
2018-07-10T10:15:20.641Z,2.50
2018-07-10T10:17:50.275Z,2.73
2018-07-10T10:20:19.953Z,2.63
2018-07-10T10:22:49.624Z,2.43
2018-07-10T10:25:19.078Z,2.30
2018-07-10T10:27:48.812Z,2.30
2018-07-10T10:30:18.430Z,2.60
2018-07-10T10:32:48.054Z,2.37
2018-07-10T10:35:17.569Z,2.57
2018-07-10T10:37:47.583Z,1.80
2018-07-10T10:40:17.347Z,2.67
2018-07-10T10:42:46.770Z,2.20
2018-07-10T10:45:16.252Z,2.63
2018-07-10T10:47:45.757Z,2.60
2018-07-10T10:50:15.261Z,2.63
2018-07-10T10:52:44.673Z,3.00
2018-07-10T10:55:14.070Z,2.50
2018-07-10T10:57:43.501Z,2.30
2018-07-10T11:00:12.881Z,2.37
2018-07-10T11:02:42.287Z,2.10
2018-07-10T11:05:11.810Z,1.93
2018-07-10T11:07:41.245Z,2.50
2018-07-10T11:10:10.705Z,2.20
2018-07-10T11:12:40.178Z,2.25
2018-07-10T11:15:09.573Z,2.40
2018-07-10T11:19:24.274Z,2.40
2018-07-10T11:22:04.214Z,2.40
2018-07-10T11:24:58.366Z,2.20
2018-07-10T11:28:07.191Z,2.30
2018-07-10T11:30:37.080Z,2.47
2018-07-10T11:33:07.445Z,2.80
2018-07-10T11:35:37.744Z,2.40
2018-07-10T11:38:11.018Z,2.63
2018-07-10T11:40:46.506Z,2.33
2018-07-10T11:43:15.994Z,2.20
2018-07-10T11:45:45.476Z,2.60
2018-07-10T11:48:14.901Z,16.60
2018-07-10T11:50:44.491Z,3.73
2018-07-10T11:53:14.964Z,16.37
2018-07-10T11:55:44.372Z,2.87
2018-07-10T11:58:13.745Z,2.30
2018-07-10T12:00:43.244Z,3.10
2018-07-10T12:03:12.643Z,2.37
2018-07-10T12:05:42.486Z,2.70
2018-07-10T12:08:11.918Z,2.20
2018-07-10T12:10:41.275Z,2.00
2018-07-10T12:13:10.650Z,2.67
2018-07-10T12:15:40.032Z,2.40
2018-07-10T12:18:09.420Z,3.47
2018-07-10T12:20:41.960Z,6.43
2018-07-10T12:23:12.207Z,5.13
2018-07-10T12:25:44.281Z,2.58
2018-07-10T12:28:14.823Z,2.80
2018-07-10T12:30:44.240Z,2.73
2018-07-10T12:33:13.677Z,2.90
2018-07-10T12:35:43.156Z,2.43
2018-07-10T12:38:12.596Z,2.57
2018-07-10T12:40:42.092Z,2.50
2018-07-10T12:43:11.570Z,2.50
2018-07-10T12:45:41.028Z,2.50
2018-07-10T12:48:10.476Z,2.80
2018-07-10T12:50:39.906Z,2.37
2018-07-10T12:53:09.361Z,2.87
2018-07-10T12:55:38.843Z,2.77
2018-07-10T12:58:08.324Z,2.43
2018-07-10T13:00:39.235Z,2.67
2018-07-10T13:03:10.700Z,2.40
2018-07-10T13:05:51.269Z,2.20
2018-07-10T13:08:20.753Z,2.30
2018-07-10T13:10:50.313Z,2.33
2018-07-10T13:13:20.053Z,2.52
2018-07-10T13:15:49.487Z,2.72
2018-07-10T13:18:23.377Z,2.67
2018-07-10T13:20:52.805Z,2.62
2018-07-10T13:23:22.164Z,2.70
2018-07-10T13:25:51.626Z,2.85
2018-07-10T13:28:21.369Z,2.50
2018-07-10T13:30:52.051Z,2.52
2018-07-10T13:33:21.597Z,2.83
2018-07-10T13:35:51.120Z,2.50
2018-07-10T13:38:22.498Z,2.40
2018-07-10T13:40:54.446Z,2.50
2018-07-10T13:43:24.059Z,2.60
2018-07-10T13:45:53.486Z,2.92
2018-07-10T13:48:22.889Z,2.83
2018-07-10T13:50:52.340Z,3.02
2018-07-10T13:53:21.807Z,3.05
2018-07-10T13:55:50.963Z,2.40
2018-07-10T13:58:24.998Z,2.93
2018-07-10T14:00:59.677Z,2.65
2018-07-10T14:03:29.164Z,2.62
2018-07-10T14:05:58.739Z,2.55
2018-07-10T14:08:28.561Z,2.70
2018-07-10T14:10:58.081Z,2.70
2018-07-10T14:13:27.706Z,2.67
2018-07-10T14:15:57.317Z,2.87
2018-07-10T14:18:27.232Z,2.77
2018-07-10T14:21:04.181Z,2.70
2018-07-10T14:23:33.638Z,3.25
2018-07-10T14:26:03.015Z,2.60
2018-07-10T14:28:32.459Z,2.83
2018-07-10T14:31:01.893Z,2.77
2018-07-10T14:33:31.327Z,2.62
2018-07-10T14:36:00.720Z,2.80
2018-07-10T14:38:31.366Z,2.40
2018-07-10T14:41:04.400Z,2.98
2018-07-10T14:43:37.750Z,2.65
2018-07-10T14:46:13.721Z,2.77
2018-07-10T14:48:53.071Z,2.80
2018-07-10T14:51:31.300Z,3.45
2018-07-10T14:54:01.050Z,3.55
2018-07-10T14:56:30.481Z,3.85
2018-07-10T14:58:59.892Z,3.75
2018-07-10T15:01:29.383Z,6.50
2018-07-10T15:03:58.886Z,7.13
2018-07-10T15:06:28.285Z,7.50
2018-07-10T15:08:57.745Z,7.97
2018-07-10T15:11:27.208Z,8.53
2018-07-10T15:14:02.867Z,8.60
2018-07-10T15:16:37.475Z,9.83
2018-07-10T15:19:07.303Z,9.50
2018-07-10T15:21:36.889Z,8.60
2018-07-10T15:24:07.430Z,9.60
2018-07-10T15:26:37.348Z,8.40
2018-07-10T15:29:06.727Z,8.63
2018-07-10T15:31:36.169Z,8.27
2018-07-10T15:34:05.757Z,9.20
2018-07-10T15:36:35.178Z,9.00
2018-07-10T15:39:05.899Z,9.53
2018-07-10T15:41:35.358Z,9.77
2018-07-10T15:44:04.488Z,8.93
2018-07-10T15:46:34.016Z,9.23
2018-07-10T15:49:03.413Z,9.07
2018-07-10T15:51:33.293Z,9.30
2018-07-10T15:54:02.667Z,9.30
2018-07-10T15:56:32.105Z,8.33
2018-07-10T15:59:01.865Z,8.50
2018-07-10T16:01:31.621Z,8.13
2018-07-10T16:04:01.024Z,8.00
2018-07-10T16:06:31.596Z,8.23
2018-07-10T16:09:15.192Z,8.30
2018-07-10T16:11:45.059Z,7.10
2018-07-10T16:14:14.465Z,7.83
2018-07-10T16:16:43.850Z,8.30
2018-07-10T16:19:17.763Z,8.17
2018-07-10T16:21:53.870Z,7.73
2018-07-10T16:24:23.815Z,8.77
2018-07-10T16:26:54.157Z,7.90
2018-07-10T16:29:25.278Z,8.97
2018-07-10T16:31:59.270Z,8.90
2018-07-10T16:34:28.822Z,9.27
2018-07-10T16:36:58.221Z,8.57
2018-07-10T16:39:27.340Z,8.80
2018-07-10T16:42:01.944Z,10.07
2018-07-10T16:44:31.460Z,9.13
2018-07-10T16:47:11.135Z,9.77
2018-07-10T16:49:44.774Z,9.73
2018-07-10T16:52:57.363Z,8.30
2018-07-10T16:55:27.967Z,13.60
2018-07-10T16:57:57.785Z,11.20
2018-07-10T17:00:28.847Z,10.53
2018-07-10T17:02:59.377Z,11.07
2018-07-10T17:05:28.894Z,10.50
2018-07-10T17:07:58.464Z,10.40
2018-07-10T17:10:27.930Z,10.90
2018-07-10T17:12:57.334Z,11.87
2018-07-10T17:15:26.794Z,11.37
2018-07-10T17:17:56.362Z,11.57
2018-07-10T17:20:25.848Z,12.20
2018-07-10T17:22:55.395Z,12.20
2018-07-10T17:25:25.004Z,12.07
2018-07-10T17:27:54.472Z,12.27
2018-07-10T17:30:23.974Z,11.73
2018-07-10T17:32:53.573Z,12.27
2018-07-10T17:35:22.950Z,12.70
2018-07-10T17:37:52.500Z,11.53
2018-07-10T17:40:22.242Z,12.27
2018-07-10T17:42:51.801Z,11.63
2018-07-10T17:45:24.305Z,11.90
2018-07-10T17:47:53.855Z,11.93
2018-07-10T17:50:23.533Z,12.97
2018-07-10T17:52:53.733Z,11.30
2018-07-10T17:55:23.553Z,12.40
2018-07-10T17:57:59.682Z,11.43
2018-07-10T18:00:29.081Z,12.57
2018-07-10T18:02:58.467Z,12.67
2018-07-10T18:05:28.273Z,14.23
2018-07-10T18:07:57.827Z,12.20
2018-07-10T18:10:27.592Z,39.37
2018-07-10T18:12:57.620Z,15.40
2018-07-10T18:15:28.241Z,12.67
2018-07-10T18:17:57.707Z,14.20
2018-07-10T18:20:27.137Z,14.03
2018-07-10T18:22:57.094Z,12.67
2018-07-10T18:25:26.501Z,13.03
2018-07-10T18:27:55.967Z,12.67
2018-07-10T18:30:25.535Z,13.93
2018-07-10T18:32:54.899Z,12.93
2018-07-10T18:35:24.360Z,12.40
2018-07-10T18:37:53.946Z,12.10
2018-07-10T18:40:23.349Z,12.90
2018-07-10T18:42:52.988Z,13.20
2018-07-10T18:45:22.663Z,12.63
2018-07-10T18:47:52.366Z,13.73
2018-07-10T18:50:22.129Z,13.70
2018-07-10T18:52:54.277Z,13.30
2018-07-10T18:55:24.924Z,13.90
2018-07-10T18:58:03.263Z,14.33
2018-07-10T19:00:45.159Z,13.43
2018-07-10T19:03:14.769Z,14.00
2018-07-10T19:05:50.101Z,14.53
2018-07-10T19:08:20.928Z,13.87
2018-07-10T19:10:50.500Z,13.73
2018-07-10T19:13:20.422Z,14.63
2018-07-10T19:15:50.523Z,14.67
2018-07-10T19:18:20.697Z,15.53
2018-07-10T19:21:01.605Z,16.13
2018-07-10T19:23:39.756Z,14.27
2018-07-10T19:26:09.322Z,14.80
2018-07-10T19:28:38.783Z,14.00
2018-07-10T19:31:17.323Z,15.27
2018-07-10T19:33:53.033Z,14.60
2018-07-10T19:36:22.566Z,16.17
2018-07-10T19:38:52.159Z,15.40
2018-07-10T19:41:22.813Z,15.53
2018-07-10T19:43:53.119Z,16.03
2018-07-10T19:46:22.745Z,15.70
2018-07-10T19:48:55.012Z,16.70
2018-07-10T19:51:26.807Z,16.20
2018-07-10T19:54:05.136Z,16.33
2018-07-10T19:56:34.835Z,16.60
2018-07-10T19:59:06.541Z,17.37
2018-07-10T20:01:44.526Z,17.27
2018-07-10T20:04:18.967Z,17.57
2018-07-10T20:08:00.653Z,16.07
2018-07-10T20:10:38.978Z,16.63
2018-07-10T20:13:12.870Z,16.20
2018-07-10T20:15:59.719Z,16.53
2018-07-10T20:19:45.022Z,16.50
2018-07-10T20:24:51.492Z,15.70
2018-07-10T20:28:00.262Z,15.83
2018-07-10T20:31:42.138Z,16.90
2018-07-10T20:34:56.586Z,18.37
2018-07-10T20:37:29.734Z,16.70
2018-07-10T20:39:59.208Z,15.97
2018-07-10T20:42:39.616Z,16.80
2018-07-10T20:45:09.766Z,17.63
2018-07-10T20:47:52.519Z,18.03
2018-07-10T20:50:34.813Z,16.87
2018-07-10T20:53:12.897Z,17.53
2018-07-10T20:55:50.798Z,17.53
2018-07-10T20:58:24.116Z,15.73
2018-07-10T21:01:03.569Z,15.57
2018-07-10T21:03:45.556Z,15.87
2018-07-10T21:06:31.875Z,15.70
2018-07-10T21:09:12.953Z,15.30
2018-07-10T21:12:17.318Z,15.27
2018-07-10T21:15:09.223Z,15.60
2018-07-10T21:18:00.759Z,13.97
2018-07-10T21:21:44.549Z,14.57
2018-07-10T21:24:22.970Z,14.33
2018-07-10T21:27:08.074Z,14.07
2018-07-10T21:29:51.943Z,15.63
2018-07-10T21:32:30.151Z,15.80
2018-07-10T21:35:03.513Z,15.67
2018-07-10T21:37:48.568Z,15.13
2018-07-10T21:41:30.562Z,14.53
2018-07-10T21:46:31.228Z,13.97
2018-07-10T21:49:35.591Z,15.10
2018-07-10T21:52:05.026Z,15.17
2018-07-10T21:54:34.539Z,15.80
2018-07-10T21:57:04.124Z,16.20
2018-07-10T21:59:35.337Z,15.53
2018-07-10T22:02:09.535Z,15.03
2018-07-10T22:04:40.523Z,15.13
2018-07-10T22:07:13.009Z,14.50
2018-07-10T22:09:43.095Z,14.70
2018-07-10T22:12:18.701Z,15.43
2018-07-10T22:14:48.214Z,14.73
2018-07-10T22:17:20.349Z,12.83
2018-07-10T22:19:51.284Z,14.57
2018-07-10T22:22:32.804Z,14.10
2018-07-10T22:25:06.811Z,15.03
2018-07-10T22:27:39.078Z,14.67
2018-07-10T22:30:15.129Z,15.00
2018-07-10T22:32:49.962Z,14.17
2018-07-10T22:35:19.440Z,14.13
2018-07-10T22:37:48.969Z,14.30
2018-07-10T22:40:19.858Z,14.40
2018-07-10T22:42:49.348Z,14.53
2018-07-10T22:45:19.649Z,14.43
2018-07-10T22:47:49.854Z,14.30
2018-07-10T22:50:21.738Z,13.20
2018-07-10T22:52:56.160Z,13.10
2018-07-10T22:55:29.555Z,13.83
2018-07-10T22:58:01.838Z,14.60
2018-07-10T23:00:34.827Z,13.63
2018-07-10T23:03:19.753Z,14.97
2018-07-10T23:05:50.747Z,13.37
2018-07-10T23:08:30.387Z,14.70
2018-07-10T23:11:01.204Z,13.60
2018-07-10T23:13:30.732Z,13.90
2018-07-10T23:16:00.108Z,13.90
2018-07-10T23:18:29.487Z,13.80
2018-07-10T23:20:58.889Z,12.57
2018-07-10T23:23:28.553Z,13.73
2018-07-10T23:25:57.976Z,13.53
2018-07-10T23:28:27.522Z,13.10
2018-07-10T23:30:57.272Z,17.47
2018-07-10T23:33:27.109Z,42.13
2018-07-10T23:35:58.002Z,22.87
2018-07-10T23:38:39.313Z,13.60
2018-07-10T23:41:21.395Z,13.40
2018-07-10T23:43:50.608Z,12.60
2018-07-10T23:46:48.978Z,13.83
2018-07-10T23:49:19.237Z,12.80
2018-07-10T23:53:06.615Z,13.47
2018-07-10T23:55:35.978Z,14.17
2018-07-10T23:58:05.499Z,14.57
